Time;durP1;ratioP1;P1;durP2;ratioP2;P2;SDS_P1;SDS_P2;PMS_P1;PMS_P2;Temp;Humidity;BMP_temperature;BMP_pressure;BME280_temperature;BME280_humidity;BME280_pressure;Samples;Min_cycle;Max_cycle;Signal;HPM_P1;HPM_P2
2021/03/26 00:01:07;;;;;;;67.00;35.78;;;52.00;2227.20;;;;;;4973725;29;20035;-80
2021/03/26 00:03:54;;;;;;;62.30;34.15;;;51.90;2227.20;;;;;;4966981;29;20023;-78
2021/03/26 00:06:29;;;;;;;76.45;42.20;;;51.80;2227.20;;;;;;4952418;29;20031;-79
2021/03/26 00:08:57;;;;;;;54.70;30.17;;;51.80;2227.20;;;;;;4953428;29;20027;-79
2021/03/26 00:11:33;;;;;;;62.30;30.92;;;51.80;2227.20;;;;;;4955709;29;20050;-80
2021/03/26 00:13:59;;;;;;;57.67;29.00;;;51.70;2227.20;;;;;;4955611;29;20031;-79
2021/03/26 00:16:25;;;;;;;73.78;39.05;;;51.80;2227.20;;;;;;4950395;29;20090;-79
2021/03/26 00:18:52;;;;;;;75.80;40.50;;;51.80;2227.20;;;;;;4950743;29;20102;-79
2021/03/26 00:21:19;;;;;;;72.55;35.88;;;51.60;2227.20;;;;;;4951186;29;20030;-79
2021/03/26 00:23:48;;;;;;;72.25;40.38;;;51.70;2227.20;;;;;;4950546;29;20047;-79
2021/03/26 00:26:15;;;;;;;52.45;31.00;;;51.50;2227.20;;;;;;4968765;29;20035;-80
2021/03/26 00:28:41;;;;;;;65.97;37.25;;;51.60;2227.20;;;;;;4938146;29;20142;-80
2021/03/26 00:31:07;;;;;;;67.30;39.65;;;51.70;2227.20;;;;;;4953575;29;20126;-79
2021/03/26 00:33:33;;;;;;;77.25;39.53;;;51.70;2227.20;;;;;;4950365;29;20031;-79
2021/03/26 00:35:59;;;;;;;76.88;42.63;;;51.60;2227.20;;;;;;4949403;29;20019;-79
2021/03/26 00:38:26;;;;;;;102.75;48.15;;;51.70;2227.20;;;;;;4950697;29;20091;-80
2021/03/26 00:40:53;;;;;;;78.05;40.95;;;51.70;2227.20;;;;;;4950090;29;20031;-79
2021/03/26 00:43:21;;;;;;;63.47;32.35;;;51.30;2227.20;;;;;;4953141;29;20031;-80
2021/03/26 00:45:48;;;;;;;93.65;43.22;;;51.70;2227.20;;;;;;4926191;29;20033;-76
2021/03/26 00:48:14;;;;;;;78.72;35.38;;;51.60;2227.20;;;;;;4958378;29;20024;-76
2021/03/26 00:50:44;;;;;;;128.13;46.25;;;51.70;2227.20;;;;;;4958409;29;20441;-76
2021/03/26 00:56:57;;;;;;;42.17;24.05;;;51.50;2227.20;;;;;;4884928;29;20118;-81
2021/03/26 01:00:29;;;;;;;47.35;25.20;;;51.50;2227.20;;;;;;4846416;29;20038;-81
2021/03/26 01:04:00;;;;;;;46.00;26.05;;;51.40;2227.20;;;;;;4801175;29;20043;-81
2021/03/26 01:07:59;;;;;;;37.60;23.10;;;51.40;2227.20;;;;;;4777857;30;20036;-80
2021/03/26 01:11:04;;;;;;;42.33;24.75;;;51.30;2227.20;;;;;;4717062;30;20129;-81
2021/03/26 01:14:30;;;;;;;52.42;28.83;;;51.40;2227.20;;;;;;4687836;30;20019;-81
2021/03/26 01:24:47;;;;;;;64.97;34.20;;;51.40;2227.20;;;;;;4671308;30;20046;-81
2021/03/26 01:39:12;;;;;;;61.53;34.15;;;51.20;2227.20;;;;;;4716999;30;20061;-80
2021/03/26 01:42:39;;;;;;;57.20;33.72;;;26.50;2201.60;;;;;;4740703;30;20041;-81
2021/03/26 01:46:19;;;;;;;58.40;32.55;;;51.20;2227.20;;;;;;4734431;30;20029;-81
2021/03/26 01:53:28;;;;;;;94.32;47.75;;;51.20;2227.20;;;;;;4753061;30;20047;-81
2021/03/26 01:57:06;;;;;;;56.85;31.63;;;26.40;2201.60;;;;;;4713873;30;20076;-81
2021/03/26 02:04:07;;;;;;;53.35;31.23;;;51.20;2227.20;;;;;;4699492;30;20171;-81
2021/03/26 02:11:38;;;;;;;48.80;29.20;;;26.40;2201.60;;;;;;4735284;30;20071;-81
2021/03/26 02:15:03;;;;;;;56.90;32.08;;;26.40;2201.60;;;;;;4699488;30;20038;-81
2021/03/26 02:18:49;;;;;;;51.95;27.88;;;26.30;2201.60;;;;;;4709478;30;20038;-81
2021/03/26 02:25:23;;;;;;;70.65;37.08;;;26.30;2201.60;;;;;;4699893;30;20045;-81
2021/03/26 02:29:22;;;;;;;54.05;28.77;;;26.30;2201.60;;;;;;4717171;30;20548;-80
2021/03/26 02:32:32;;;;;;;55.97;30.85;;;26.30;2201.60;;;;;;4682901;30;20495;-80
2021/03/26 02:39:59;;;;;;;35.67;19.75;;;26.30;2201.60;;;;;;4698431;30;20053;-81
2021/03/26 02:58:00;;;;;;;32.58;19.73;;;26.20;2201.60;;;;;;4699128;30;20056;-80
2021/03/26 03:01:24;;;;;;;31.75;17.70;;;26.10;2201.60;;;;;;4700236;30;20044;-81
2021/03/26 03:11:43;;;;;;;34.10;19.52;;;26.10;2201.60;;;;;;4734713;30;20048;-81
2021/03/26 03:21:46;;;;;;;47.40;24.55;;;26.10;2201.60;;;;;;4805519;30;20042;-80
2021/03/26 03:25:04;;;;;;;38.25;20.83;;;26.10;2201.60;;;;;;4810533;29;20065;-80
2021/03/26 03:31:50;;;;;;;44.50;23.15;;;26.00;2201.60;;;;;;4843205;29;20063;-80
2021/03/26 03:38:46;;;;;;;34.22;18.98;;;26.00;2201.60;;;;;;4842364;29;20059;-82
2021/03/26 04:07:14;;;;;;;30.73;17.83;;;25.90;2201.60;;;;;;4860762;29;20069;-79
2021/03/26 04:10:26;;;;;;;58.58;25.55;;;25.80;2201.60;;;;;;4838137;29;20068;-80
2021/03/26 04:14:21;;;;;;;46.15;22.27;;;25.80;2201.60;;;;;;4773954;30;20039;-80
2021/03/26 04:18:06;;;;;;;59.10;26.65;;;25.70;2201.60;;;;;;4786740;30;20044;-80
2021/03/26 04:21:10;;;;;;;47.60;24.25;;;25.80;2201.60;;;;;;4758479;30;20048;-80
2021/03/26 04:24:31;;;;;;;43.67;22.95;;;25.70;2201.60;;;;;;4769336;30;20083;-80
2021/03/26 04:27:36;;;;;;;42.65;23.08;;;25.70;2201.60;;;;;;4769416;30;20045;-81
2021/03/26 04:34:45;;;;;;;35.08;18.90;;;25.80;2201.60;;;;;;4874710;29;20032;-81
2021/03/26 04:37:43;;;;;;;54.20;27.77;;;25.60;2201.60;;;;;;4877198;29;20044;-80
2021/03/26 04:40:48;;;;;;;43.15;23.05;;;0.90;2201.60;;;;;;4881440;29;20018;-80
2021/03/26 04:44:09;;;;;;;45.03;22.27;;;0.90;2201.60;;;;;;4876294;29;20033;-81
2021/03/26 04:47:47;;;;;;;55.35;27.25;;;0.90;2201.60;;;;;;4897509;29;20045;-81
2021/03/26 04:51:22;;;;;;;61.22;29.05;;;0.90;2201.60;;;;;;4916393;29;20048;-81
2021/03/26 04:55:01;;;;;;;42.92;25.33;;;0.90;2201.60;;;;;;4928921;28;20065;-82
2021/03/26 04:58:37;;;;;;;54.65;32.50;;;0.80;2201.60;;;;;;4937421;29;20058;-81
2021/03/26 05:01:58;;;;;;;67.38;39.10;;;0.70;2201.60;;;;;;4978681;29;20409;-80
2021/03/26 05:05:12;;;;;;;59.92;33.42;;;0.80;2201.60;;;;;;4910703;29;20054;-81
2021/03/26 05:08:26;;;;;;;52.17;31.05;;;0.80;2201.60;;;;;;4934910;29;20060;-80
2021/03/26 05:11:12;;;;;;;69.93;35.85;;;25.60;2201.60;;;;;;4935132;29;20040;-80
2021/03/26 05:14:25;;;;;;;52.15;30.17;;;25.60;2201.60;;;;;;4928456;29;20052;-81
2021/03/26 05:17:16;;;;;;;;;;;25.70;2201.60;;;;;;4934988;29;20124;-78
2021/03/26 05:20:57;;;;;;;55.35;26.90;;;25.70;2201.60;;;;;;4931463;29;19979;-81
2021/03/26 05:27:33;;;;;;;60.72;31.80;;;25.90;2201.60;;;;;;4880721;29;20057;-81
2021/03/26 05:31:07;;;;;;;54.47;29.70;;;25.90;2201.60;;;;;;4878820;29;20080;-80
2021/03/26 05:34:10;;;;;;;46.72;28.23;;;26.00;2201.60;;;;;;4858482;29;20046;-79
2021/03/26 05:41:22;;;;;;;64.50;35.70;;;26.00;2201.60;;;;;;4824102;29;20050;-80
2021/03/26 05:44:54;;;;;;;51.33;29.42;;;26.20;2201.60;;;;;;4806536;29;20039;-81
2021/03/26 05:48:34;;;;;;;76.00;40.40;;;26.40;2201.60;;;;;;4738243;29;20049;-80
2021/03/26 05:51:58;;;;;;;63.92;34.33;;;26.50;2201.60;;;;;;4786665;30;20048;-80
2021/03/26 05:55:22;;;;;;;56.83;32.25;;;51.20;2227.20;;;;;;4796269;30;20146;-81
2021/03/26 06:02:18;;;;;;;146.82;73.18;;;51.30;2227.20;;;;;;4789232;30;20053;-81
2021/03/26 06:19:37;;;;;;;73.28;44.55;;;51.80;2227.20;;;;;;4773563;30;20086;-81
2021/03/26 06:33:12;;;;;;;106.03;51.53;;;51.90;2227.20;;;;;;4720859;30;20129;-81
2021/03/26 08:51:31;;;;;;;23.15;14.13;;;180.10;1920.00;;;;;;4915431;29;20068;-78
2021/03/26 08:53:56;;;;;;;20.85;15.55;;;204.80;1792.00;;;;;;4934092;29;20047;-80
2021/03/26 08:56:57;;;;;;;28.83;19.80;;;205.10;1792.00;;;;;;4943014;29;20031;-80
2021/03/26 09:00:00;;;;;;;41.67;22.15;;;205.30;1817.60;;;;;;4938371;29;20098;-81
2021/03/26 09:03:04;;;;;;;33.38;20.98;;;205.30;1792.00;;;;;;4950734;28;20027;-82
2021/03/26 09:05:48;;;;;;;30.42;19.65;;;205.30;1817.60;;;;;;4922814;29;20027;-84
2021/03/26 09:08:20;;;;;;;37.08;24.95;;;205.40;1792.00;;;;;;4928941;29;20027;-82
2021/03/26 09:11:01;;;;;;;29.60;20.40;;;205.40;1817.60;;;;;;4922103;29;20056;-84
2021/03/26 09:13:56;;;;;;;27.02;18.50;;;205.60;1817.60;;;;;;4920369;29;20032;-82
2021/03/26 09:16:30;;;;;;;23.40;15.85;;;230.40;1766.40;;;;;;4938394;29;20023;-82
2021/03/26 09:19:34;;;;;;;69.30;22.08;;;230.50;1689.60;;;;;;4950996;29;20431;-83
2021/03/26 09:22:53;;;;;;;27.63;17.95;;;230.60;1689.60;;;;;;4936518;29;20020;-83
2021/03/26 09:25:31;;;;;;;28.30;18.63;;;230.60;1664.00;;;;;;4936162;29;20549;-83
2021/03/26 09:28:33;;;;;;;32.40;22.17;;;230.70;1638.40;;;;;;4938613;29;20367;-84
2021/03/26 09:31:20;;;;;;;23.65;16.33;;;231.00;1638.40;;;;;;4938611;29;20036;-81
2021/03/26 09:34:04;;;;;;;33.35;23.08;;;231.20;1638.40;;;;;;4921420;29;20080;-79
2021/03/26 09:36:39;;;;;;;26.17;16.00;;;231.30;1664.00;;;;;;4922436;29;20027;-78
2021/03/26 09:39:10;;;;;;;33.10;19.85;;;231.20;1510.40;;;;;;4934246;29;20061;-83
2021/03/26 09:41:53;;;;;;;29.63;18.65;;;231.20;1510.40;;;;;;4937708;29;20377;-81
2021/03/26 09:44:34;;;;;;;33.17;19.02;;;231.30;1536.00;;;;;;4936851;29;20059;-86
2021/03/26 09:47:05;;;;;;;28.25;15.98;;;256.20;1536.00;;;;;;4937279;29;20035;-79
2021/03/26 09:49:43;;;;;;;23.38;14.93;;;256.40;1459.20;;;;;;4937116;29;20028;-82
2021/03/26 09:52:23;;;;;;;20.30;13.15;;;256.70;1459.20;;;;;;4922037;28;20668;-82
2021/03/26 09:55:03;;;;;;;22.90;13.65;;;256.80;1382.40;;;;;;4920956;29;20035;-89
2021/03/26 09:57:45;;;;;;;25.33;13.93;;;256.90;1433.60;;;;;;4920208;29;20059;-82
2021/03/26 10:00:52;;;;;;;26.55;15.65;;;256.70;1484.80;;;;;;4921645;29;20122;-89
2021/03/26 10:03:43;;;;;;;24.73;14.02;;;281.60;1484.80;;;;;;4921357;29;20082;-89
2021/03/26 10:06:39;;;;;;;28.00;17.27;;;281.70;1382.40;;;;;;4920846;29;20120;-80
2021/03/26 10:10:00;;;;;;;24.42;15.82;;;282.10;1433.60;;;;;;4913187;29;20032;-83
2021/03/26 10:12:32;;;;;;;28.67;19.65;;;282.00;1459.20;;;;;;4920864;29;20034;-81
2021/03/26 10:15:17;;;;;;;25.52;14.07;;;282.10;1408.00;;;;;;4920897;29;20027;-82
2021/03/26 10:17:46;;;;;;;22.02;14.98;;;282.20;1331.20;;;;;;4921085;29;20071;-81
2021/03/26 10:20:40;;;;;;;22.15;13.50;;;282.10;1356.80;;;;;;4921406;29;20051;-84
2021/03/26 10:23:35;;;;;;;24.05;13.70;;;282.00;1331.20;;;;;;4921049;29;20091;-89
2021/03/26 10:26:03;;;;;;;19.88;14.70;;;282.30;1331.20;;;;;;4920825;29;20129;-82
2021/03/26 10:28:32;;;;;;;35.65;23.42;;;307.20;1382.40;;;;;;4920647;29;20028;-82
2021/03/26 10:31:17;;;;;;;18.23;13.32;;;307.70;1408.00;;;;;;4920774;29;20032;-82
2021/03/26 10:33:55;;;;;;;20.90;11.95;;;307.30;1356.80;;;;;;4921663;29;20027;-86
2021/03/26 10:36:41;;;;;;;24.85;15.50;;;282.50;1305.60;;;;;;4919763;29;20124;-84
2021/03/26 10:39:31;;;;;;;24.30;13.05;;;282.40;1331.20;;;;;;4909968;29;20063;-83
2021/03/26 10:42:28;;;;;;;34.90;23.45;;;282.40;1331.20;;;;;;4920973;29;20050;-80
2021/03/26 10:45:03;;;;;;;40.15;26.50;;;282.30;1356.80;;;;;;4919838;29;20087;-81
2021/03/26 10:47:45;;;;;;;22.77;14.02;;;307.50;1356.80;;;;;;4938025;29;20023;-86
2021/03/26 10:50:10;;;;;;;22.15;13.65;;;307.30;1331.20;;;;;;4920289;29;20038;-80
2021/03/26 10:52:44;;;;;;;39.00;24.30;;;308.00;1305.60;;;;;;4928353;29;20028;-78
2021/03/26 10:55:16;;;;;;;22.75;14.73;;;332.90;1280.00;;;;;;4920196;29;20034;-83
2021/03/26 10:58:02;;;;;;;22.25;12.95;;;333.20;1280.00;;;;;;4935147;29;20474;-78
2021/03/26 11:00:35;;;;;;;33.30;18.80;;;333.30;1228.80;;;;;;4919992;29;20036;-80
2021/03/26 11:03:30;;;;;;;36.45;23.08;;;333.60;1203.20;;;;;;4920485;29;20035;-82
2021/03/26 11:06:00;;;;;;;24.98;18.25;;;333.60;1152.00;;;;;;4917525;29;20035;-81
2021/03/26 11:08:35;;;;;;;23.65;13.68;;;358.40;1177.60;;;;;;4931592;29;20483;-81
2021/03/26 11:11:21;;;;;;;14.40;10.75;;;358.60;1152.00;;;;;;4923720;29;20035;-78
2021/03/26 11:14:16;;;;;;;18.00;12.80;;;358.80;1152.00;;;;;;4927804;29;20024;-82
2021/03/26 11:17:01;;;;;;;20.70;11.02;;;359.00;1152.00;;;;;;4954653;29;20035;-83
2021/03/26 11:19:46;;;;;;;21.30;13.30;;;359.20;1126.40;;;;;;4954044;29;20394;-77
2021/03/26 11:22:24;;;;;;;16.52;11.68;;;384.00;1126.40;;;;;;4949790;28;20027;-87
2021/03/26 11:25:06;;;;;;;14.63;11.10;;;384.30;1126.40;;;;;;4938377;29;20035;-82
2021/03/26 11:27:48;;;;;;;17.17;12.18;;;384.10;1126.40;;;;;;4948300;28;20034;-79
2021/03/26 11:30:24;;;;;;;97.88;57.40;;;384.40;1177.60;;;;;;4922121;29;20032;-82
2021/03/26 11:32:59;;;;;;;30.63;19.92;;;384.90;1126.40;;;;;;4934441;29;20032;-79
2021/03/26 11:35:26;;;;;;;25.35;16.40;;;409.80;1177.60;;;;;;4926015;29;20116;-81
2021/03/26 11:37:59;;;;;;;28.58;16.92;;;409.90;1177.60;;;;;;4941561;29;20055;-82
2021/03/26 11:40:44;;;;;;;23.17;14.60;;;410.20;1152.00;;;;;;4922659;29;20090;-84
2021/03/26 11:43:22;;;;;;;17.10;11.77;;;410.50;1100.80;;;;;;4932884;29;20044;-77
2021/03/26 11:46:13;;;;;;;21.60;12.38;;;435.40;1075.20;;;;;;4916514;29;20032;-83
2021/03/26 11:48:55;;;;;;;13.80;10.15;;;435.50;1024.00;;;;;;4933033;28;20082;-81
2021/03/26 11:51:53;;;;;;;15.40;10.65;;;410.20;1024.00;;;;;;4943235;29;20023;-82
2021/03/26 11:54:43;;;;;;;21.05;14.23;;;410.50;1049.60;;;;;;4916274;29;20032;-82
2021/03/26 11:57:33;;;;;;;21.98;13.57;;;410.50;1024.00;;;;;;4934325;29;20062;-82
2021/03/26 12:00:22;;;;;;;19.42;12.85;;;435.20;998.40;;;;;;4924039;29;20114;-82
2021/03/26 12:03:17;;;;;;;21.35;13.25;;;435.50;1075.20;;;;;;4918367;29;20023;-81
2021/03/26 12:06:17;;;;;;;14.27;9.65;;;435.70;972.80;;;;;;4918114;29;20043;-81
2021/03/26 12:08:58;;;;;;;19.38;13.38;;;435.80;998.40;;;;;;4918712;29;20494;-81
2021/03/26 12:11:39;;;;;;;20.83;14.77;;;436.00;998.40;;;;;;4934490;29;20039;-83
2021/03/26 12:14:40;;;;;;;31.08;16.45;;;435.80;921.60;;;;;;4925648;29;20028;-82
2021/03/26 12:17:21;;;;;;;15.60;11.95;;;435.90;972.80;;;;;;4835766;29;20432;-82
2021/03/26 12:19:48;;;;;;;56.53;40.47;;;436.00;947.20;;;;;;4915893;29;20079;-83
2021/03/26 12:22:23;;;;;;;23.65;17.63;;;435.90;921.60;;;;;;4915105;29;20064;-80
2021/03/26 12:25:13;;;;;;;18.83;12.15;;;435.70;947.20;;;;;;4919015;29;20509;-80
2021/03/26 12:27:46;;;;;;;58.08;37.20;;;460.90;972.80;;;;;;4898973;29;20020;-75
2021/03/26 12:30:19;;;;;;;22.35;15.90;;;461.10;998.40;;;;;;4915980;29;20036;-75
2021/03/26 12:33:09;;;;;;;;;;;461.00;947.20;;;;;;4916932;29;20071;-84
2021/03/26 12:35:43;;;;;;;22.90;14.15;;;461.30;947.20;;;;;;4930656;29;19989;-82
2021/03/26 12:38:34;;;;;;;21.52;16.75;;;461.00;921.60;;;;;;4914882;29;20079;-80
2021/03/26 12:41:12;;;;;;;19.63;12.57;;;461.30;947.20;;;;;;4915690;29;20035;-83
2021/03/26 12:43:52;;;;;;;19.88;14.88;;;461.20;921.60;;;;;;4914679;29;20111;-82
2021/03/26 12:46:41;;;;;;;14.15;10.77;;;461.30;921.60;;;;;;4918147;29;20030;-84
2021/03/26 12:49:13;;;;;;;16.73;11.85;;;461.50;947.20;;;;;;4931543;29;20032;-81
2021/03/26 12:51:46;;;;;;;16.95;11.90;;;461.50;947.20;;;;;;4917848;29;20479;-77
2021/03/26 12:54:23;;;;;;;19.42;13.50;;;461.40;998.40;;;;;;4915385;29;20513;-80
2021/03/26 12:56:56;;;;;;;11.02;8.00;;;436.10;921.60;;;;;;4914449;29;20482;-78
2021/03/26 12:59:47;;;;;;;14.73;9.63;;;461.00;947.20;;;;;;4898703;29;20028;-81
2021/03/26 13:02:19;;;;;;;18.40;13.05;;;460.80;921.60;;;;;;4919469;29;20024;-85
2021/03/26 13:05:03;;;;;;;25.98;18.15;;;436.10;896.00;;;;;;4918853;29;20091;-82
2021/03/26 13:07:54;;;;;;;13.50;10.43;;;461.10;947.20;;;;;;4918337;29;20032;-81
2021/03/26 13:10:25;;;;;;;18.50;11.75;;;461.50;947.20;;;;;;4933181;29;20063;-80
2021/03/26 13:13:01;;;;;;;18.67;12.48;;;486.40;921.60;;;;;;4937584;29;20394;-80
2021/03/26 13:15:31;;;;;;;21.98;13.57;;;461.50;896.00;;;;;;4933025;29;20398;-81
2021/03/26 13:18:10;;;;;;;17.45;12.02;;;486.70;921.60;;;;;;4923149;29;20096;-80
2021/03/26 13:21:24;;;;;;;20.58;12.77;;;486.40;870.40;;;;;;4926591;29;20032;-80
2021/03/26 13:24:17;;;;;;;24.77;17.27;;;486.60;921.60;;;;;;4882108;29;20047;-80
2021/03/26 13:26:43;;;;;;;;;;;487.00;921.60;;;;;;4922126;29;20036;-79
2021/03/26 13:29:29;;;;;;;21.00;14.43;;;487.10;896.00;;;;;;4902611;29;19907;-78
2021/03/26 13:31:58;;;;;;;20.23;10.98;;;487.30;896.00;;;;;;4917120;29;20028;-79
2021/03/26 13:34:35;;;;;;;14.05;9.98;;;487.10;870.40;;;;;;4916813;29;20032;-78
2021/03/26 13:37:11;;;;;;;15.80;11.15;;;486.70;844.80;;;;;;4918501;29;20032;-79
2021/03/26 13:40:03;;;;;;;17.45;13.65;;;461.60;870.40;;;;;;4933746;29;20028;-78
2021/03/26 13:42:49;;;;;;;15.00;11.63;;;486.60;947.20;;;;;;4926233;29;20490;-79
2021/03/26 13:45:26;;;;;;;17.65;12.68;;;486.80;870.40;;;;;;4920542;29;20043;-77
2021/03/26 13:48:00;;;;;;;15.98;11.35;;;487.00;896.00;;;;;;4917111;29;20028;-77
2021/03/26 13:51:04;;;;;;;22.50;13.10;;;487.20;870.40;;;;;;4927289;29;20035;-80
2021/03/26 13:53:53;;;;;;;21.40;13.80;;;487.10;896.00;;;;;;4922371;29;20025;-79
2021/03/26 13:56:29;;;;;;;16.27;9.98;;;486.80;844.80;;;;;;4918008;29;20027;-79
2021/03/26 13:59:12;;;;;;;38.25;23.75;;;486.80;870.40;;;;;;4901372;29;20058;-76
2021/03/26 14:01:52;;;;;;;18.80;12.50;;;486.70;896.00;;;;;;4921868;29;20513;-79
2021/03/26 14:04:56;;;;;;;34.33;23.55;;;487.00;921.60;;;;;;4922773;29;20555;-79
2021/03/26 14:07:30;;;;;;;18.08;12.52;;;487.20;896.00;;;;;;4843753;29;20484;-79
2021/03/26 14:10:13;;;;;;;21.77;14.70;;;487.30;896.00;;;;;;4843952;29;20033;-77
2021/03/26 14:12:41;;;;;;;10.82;7.88;;;487.20;819.20;;;;;;4879015;29;20119;-78
2021/03/26 14:15:17;;;;;;;13.15;9.50;;;486.80;819.20;;;;;;4921025;29;20035;-77
2021/03/26 14:18:07;;;;;;;17.30;12.50;;;486.70;844.80;;;;;;4927706;29;20060;-79
2021/03/26 14:20:55;;;;;;;21.35;13.45;;;486.60;844.80;;;;;;4895368;29;20040;-77
2021/03/26 14:23:29;;;;;;;27.38;17.35;;;486.80;844.80;;;;;;4912922;29;20506;-81
2021/03/26 14:25:58;;;;;;;14.77;10.93;;;486.50;844.80;;;;;;4912138;29;20032;-80
2021/03/26 14:29:10;;;;;;;23.00;17.02;;;486.60;870.40;;;;;;4920935;29;20451;-76
2021/03/26 14:31:57;;;;;;;35.60;31.88;;;486.80;870.40;;;;;;4913484;29;20055;-82
2021/03/26 14:34:32;;;;;;;14.68;9.98;;;486.70;896.00;;;;;;4917236;29;20032;-82
2021/03/26 14:37:03;;;;;;;29.35;19.25;;;461.70;844.80;;;;;;4900412;29;20031;-82
2021/03/26 14:39:29;;;;;;;25.98;18.75;;;486.50;896.00;;;;;;4910094;29;20024;-84
2021/03/26 14:42:16;;;;;;;18.13;12.82;;;486.70;896.00;;;;;;4900243;29;20028;-81
2021/03/26 14:44:47;;;;;;;17.25;13.48;;;486.50;896.00;;;;;;4905337;29;20054;-80
2021/03/26 14:47:16;;;;;;;17.50;12.23;;;461.70;844.80;;;;;;4935741;29;20376;-82
2021/03/26 14:50:03;;;;;;;15.02;11.07;;;486.40;870.40;;;;;;4936400;29;20028;-79
2021/03/26 14:52:29;;;;;;;23.02;14.27;;;461.70;870.40;;;;;;4938853;28;20605;-80
2021/03/26 14:55:14;;;;;;;20.60;14.93;;;461.30;844.80;;;;;;4928262;29;20039;-81
2021/03/26 14:58:09;;;;;;;18.60;13.32;;;461.40;896.00;;;;;;4920540;29;20032;-80
2021/03/26 15:00:51;;;;;;;27.73;17.20;;;461.20;896.00;;;;;;4916281;29;20043;-82
2021/03/26 15:03:51;;;;;;;26.88;16.35;;;460.90;896.00;;;;;;4932148;29;20059;-78
2021/03/26 15:06:17;;;;;;;30.90;21.13;;;435.90;870.40;;;;;;4934636;29;20024;-81
2021/03/26 15:08:53;;;;;;;43.50;31.15;;;435.70;896.00;;;;;;4936223;29;20024;-79
2021/03/26 15:11:39;;;;;;;29.45;21.08;;;435.40;921.60;;;;;;4934763;29;20027;-76
2021/03/26 15:14:31;;;;;;;117.43;81.63;;;435.20;947.20;;;;;;4900269;29;20040;-77
2021/03/26 15:17:34;;;;;;;36.33;19.00;;;410.30;998.40;;;;;;4906488;29;20040;-78
2021/03/26 15:20:04;;;;;;;27.00;16.65;;;410.00;947.20;;;;;;4919736;29;20043;-81
2021/03/26 15:22:46;;;;;;;27.85;18.17;;;409.70;972.80;;;;;;4921351;29;20045;-79
2021/03/26 15:25:17;;;;;;;29.52;22.10;;;384.90;998.40;;;;;;4954349;29;20381;-78
2021/03/26 15:27:48;;;;;;;28.45;19.30;;;384.70;998.40;;;;;;4954424;29;20386;-78
2021/03/26 15:30:23;;;;;;;25.35;19.00;;;384.60;972.80;;;;;;4938737;29;20031;-79
2021/03/26 15:33:06;;;;;;;45.55;32.33;;;384.40;998.40;;;;;;4955481;29;20106;-80
2021/03/26 15:35:41;;;;;;;38.55;27.40;;;384.30;1049.60;;;;;;4938918;29;20031;-80
2021/03/26 15:38:31;;;;;;;26.60;22.42;;;384.30;1049.60;;;;;;4938699;29;20027;-80
2021/03/26 15:41:10;;;;;;;22.95;16.58;;;384.10;1049.60;;;;;;4955743;29;20050;-84
2021/03/26 15:44:21;;;;;;;24.42;17.40;;;359.30;998.40;;;;;;4955702;29;20054;-83
2021/03/26 15:47:09;;;;;;;22.95;15.75;;;359.20;1024.00;;;;;;4844066;29;20025;-86
2021/03/26 15:50:04;;;;;;;42.50;23.17;;;359.10;1075.20;;;;;;4938515;29;20028;-80
2021/03/26 15:52:39;;;;;;;48.47;23.92;;;359.00;1100.80;;;;;;4936182;28;20119;-78
2021/03/26 15:55:30;;;;;;;51.50;31.80;;;359.00;1100.80;;;;;;4936136;29;20175;-80
2021/03/26 15:58:14;;;;;;;407.10;103.10;;;359.00;1100.80;;;;;;4918087;29;20031;-78
2021/03/26 16:00:51;;;;;;;118.30;40.08;;;358.90;1126.40;;;;;;4919282;29;20078;-78
2021/03/26 16:03:47;;;;;;;67.93;29.63;;;358.70;1126.40;;;;;;4935376;29;20031;-82
2021/03/26 16:06:16;;;;;;;47.13;27.33;;;358.70;1126.40;;;;;;4919516;29;20032;-80
2021/03/26 16:09:14;;;;;;;39.38;22.88;;;358.60;1152.00;;;;;;4936484;29;20031;-81
2021/03/26 16:11:44;;;;;;;32.63;21.05;;;358.40;1152.00;;;;;;4919686;29;20050;-82
2021/03/26 16:14:18;;;;;;;27.02;16.25;;;333.60;1203.20;;;;;;4936745;29;20462;-77
2021/03/26 16:17:18;;;;;;;64.80;34.38;;;333.40;1254.40;;;;;;4919301;29;20465;-84
2021/03/26 16:19:58;;;;;;;38.10;24.75;;;333.20;1280.00;;;;;;4919724;29;20506;-82
2021/03/26 16:22:39;;;;;;;34.65;23.05;;;333.00;1305.60;;;;;;4919920;29;20115;-82
2021/03/26 16:25:28;;;;;;;44.78;29.23;;;332.90;1305.60;;;;;;4919519;29;20046;-81
2021/03/26 16:28:12;;;;;;;67.70;37.40;;;332.80;1305.60;;;;;;4919109;29;20044;-81
2021/03/26 16:30:45;;;;;;;65.30;37.45;;;332.80;1305.60;;;;;;4919896;29;20489;-83
2021/03/26 16:33:10;;;;;;;87.40;55.10;;;308.10;1305.60;;;;;;4919048;29;20030;-81
2021/03/26 16:35:54;;;;;;;84.55;56.47;;;308.00;1305.60;;;;;;4920847;29;20065;-82
2021/03/26 16:38:39;;;;;;;53.67;38.10;;;307.90;1305.60;;;;;;4922772;29;20036;-83
2021/03/26 16:41:20;;;;;;;64.95;35.63;;;307.70;1305.60;;;;;;4931034;29;20058;-85
2021/03/26 16:44:07;;;;;;;56.70;31.55;;;307.70;1331.20;;;;;;4922599;29;20051;-85
2021/03/26 16:47:11;;;;;;;44.60;27.42;;;307.70;1331.20;;;;;;4921698;29;20466;-84
2021/03/26 16:49:55;;;;;;;;;;;307.60;1305.60;;;;;;4918096;29;20156;-85
2021/03/26 16:53:09;;;;;;;23.35;14.85;;;307.50;1331.20;;;;;;4923664;29;20001;-84
2021/03/26 16:55:38;;;;;;;22.65;15.15;;;307.20;1356.80;;;;;;4905628;29;20043;-84
2021/03/26 16:58:31;;;;;;;41.33;28.25;;;282.50;1356.80;;;;;;4921340;29;20517;-85
2021/03/26 17:01:20;;;;;;;114.53;72.80;;;282.30;1356.80;;;;;;4922672;29;20031;-83
2021/03/26 17:04:17;;;;;;;109.05;70.53;;;282.20;1408.00;;;;;;4938373;29;20028;-82
2021/03/26 17:07:12;;;;;;;109.38;70.90;;;282.00;1408.00;;;;;;4922903;29;20429;-85
2021/03/26 17:10:05;;;;;;;102.60;69.40;;;282.10;1408.00;;;;;;4922420;29;20486;-82
2021/03/26 17:13:01;;;;;;;111.38;78.28;;;281.90;1433.60;;;;;;4922288;29;20482;-85
2021/03/26 17:15:52;;;;;;;112.50;78.30;;;281.80;1433.60;;;;;;4922218;29;20032;-84
2021/03/26 17:18:39;;;;;;;130.45;87.65;;;281.60;1484.80;;;;;;4922384;29;20032;-87
2021/03/26 17:21:29;;;;;;;135.20;91.80;;;281.60;1484.80;;;;;;4925964;29;20031;-83
2021/03/26 17:24:16;;;;;;;110.65;76.15;;;256.90;1459.20;;;;;;4940189;29;20055;-80
2021/03/26 17:27:01;;;;;;;112.03;75.05;;;256.90;1459.20;;;;;;4949262;29;20027;-82
2021/03/26 17:29:36;;;;;;;122.25;83.78;;;256.80;1484.80;;;;;;4951394;29;20028;-81
2021/03/26 17:32:20;;;;;;;131.25;86.97;;;256.60;1510.40;;;;;;4929896;29;20048;-84
2021/03/26 17:35:07;;;;;;;152.50;96.50;;;256.60;1536.00;;;;;;4934700;29;20028;-84
2021/03/26 17:37:45;;;;;;;133.65;86.55;;;256.40;1536.00;;;;;;4935885;29;20067;-84
2021/03/26 17:40:57;;;;;;;142.38;89.05;;;256.40;1536.00;;;;;;4937033;29;20032;-83
2021/03/26 17:43:49;;;;;;;138.98;88.40;;;256.30;1561.60;;;;;;4951326;29;20115;-83
2021/03/26 17:46:33;;;;;;;111.53;75.38;;;256.10;1587.20;;;;;;4937206;29;20044;-79
2021/03/26 17:49:05;;;;;;;139.23;87.70;;;231.30;1587.20;;;;;;4930879;29;20023;-80
2021/03/26 17:51:56;;;;;;;99.47;63.45;;;231.10;1612.80;;;;;;4930285;29;20038;-81
2021/03/26 17:54:29;;;;;;;96.13;58.92;;;231.10;1612.80;;;;;;4926834;29;20044;-80
2021/03/26 17:57:10;;;;;;;89.88;56.28;;;231.10;1612.80;;;;;;4921173;29;20470;-83
2021/03/26 18:00:01;;;;;;;69.10;43.50;;;231.20;1612.80;;;;;;4921754;29;20031;-82
2021/03/26 18:02:46;;;;;;;79.47;48.25;;;231.10;1638.40;;;;;;4921441;29;20126;-78
2021/03/26 18:05:17;;;;;;;98.38;57.00;;;231.00;1638.40;;;;;;4922004;29;20478;-86
2021/03/26 18:08:08;;;;;;;86.43;55.80;;;230.90;1664.00;;;;;;4921512;29;20066;-82
2021/03/26 18:11:01;;;;;;;89.35;54.50;;;230.90;1664.00;;;;;;4921607;29;20363;-85
2021/03/26 18:13:52;;;;;;;88.22;55.72;;;230.90;1664.00;;;;;;4921325;29;20058;-84
2021/03/26 18:16:40;;;;;;;135.57;78.25;;;230.80;1689.60;;;;;;4921568;29;20142;-86
2021/03/26 18:19:28;;;;;;;124.00;73.57;;;230.70;1689.60;;;;;;4921021;29;20470;-85
2021/03/26 18:22:56;;;;;;;131.57;77.63;;;230.60;1715.20;;;;;;4920925;29;20034;-84
2021/03/26 18:25:52;;;;;;;119.63;73.70;;;230.50;1715.20;;;;;;4863709;29;20436;-87
2021/03/26 18:29:00;;;;;;;134.70;77.13;;;205.70;1715.20;;;;;;4879237;29;20100;-88
2021/03/26 18:31:43;;;;;;;103.25;62.60;;;205.70;1740.80;;;;;;4943268;29;20024;-88
2021/03/26 18:34:24;;;;;;;88.10;57.95;;;205.50;1766.40;;;;;;4933314;29;20027;-88
2021/03/26 18:37:09;;;;;;;98.35;60.45;;;205.40;1792.00;;;;;;4944491;29;20030;-87